DTTA METAR and TAF | Updated Today

DTTA METAR

Tunis Carthage International Airport

Observation time: 22 min. ago

DTTA 060800Z 22014KT 8000 -TSRA SCT020TCU FEW023CB BKN040 09/06 Q1009

Need help? Read our tutorial on how to read METARs or read the parsed version below.

Tunis Carthage International Airport (DTTA) METAR

  • Weather conditions on Mon, 06 Dec 2021 08:00:00 +0000 (22 min. ago):
  • Present conditions: Light thunderstorms rain
  • Clouds: Scattered at 610 meters, towering cumulus; a few at 701 meters, cumulonimbus; broken sky at 1219 meters
  • Visibility: 8000 meters
  • Wind: 220 degrees at 14 knots
  • Temperature: 9 celsius
  • Dew point: 6 celsius
  • Pressure: 1009 millibars
  • Remarks: None


Useful to know...

DTTA TAF

Tunis Carthage International Airport

TAF DTTA 060500Z 0606/0706 23005KT 8000 SCT020 TEMPO 0610/0618 33020KT 4000 SHRA SCT023TCU
Observation time: 3:22 hr. ago
Need help? Read our tutorial on how to read TAFs or read the parsed version below.

Parsed version of TAF for Tunis Carthage International Airport (DTTA)

  • From 06 December at 06:00 UTC, to day 07 of the month at 06:00 UTC
  • Clouds: Scattered at 610 meters
  • Visibility: 8000 meters
  • Wind: 230 degrees at 5
  • Expected to arise temporarily, from 06 December at 10:00 UTC, to day 06 of the month at 18:00 UTC
  • Clouds: Scattered at 701 meters, towering cumulus
  • Visibility: 4000 meters
  • Wind: 330 degrees at 20
  • Other: Showers of rain

Airports near DTTA